Time;durP1;ratioP1;P1;durP2;ratioP2;P2;SDS_P1;SDS_P2;PMS_P1;PMS_P2;Temp;Humidity;BMP_temperature;BMP_pressure;BME280_temperature;BME280_humidity;BME280_pressure;Samples;Min_cycle;Max_cycle;Signal;HPM_P1;HPM_P2
2023/03/16 00:02:23;;;;;;;23.20;14.37;;;;;;;-1.24;100.00;96617.19;5036157;28;20467;-90
2023/03/16 00:05:02;;;;;;;25.20;13.97;;;;;;;-1.29;100.00;96625.16;5037372;28;20059;-91
2023/03/16 00:07:34;;;;;;;19.93;13.07;;;;;;;-1.27;100.00;96630.25;5054397;28;20467;-90
2023/03/16 00:10:00;;;;;;;14.38;9.70;;;;;;;-1.32;100.00;96624.50;5051895;28;20886;-90
2023/03/16 00:12:43;;;;;;;23.90;14.13;;;;;;;-1.33;100.00;96628.81;5051567;28;20400;-91
2023/03/16 00:15:11;;;;;;;23.00;13.73;;;;;;;-1.35;100.00;96630.63;5030306;28;20479;-91
2023/03/16 00:17:39;;;;;;;23.43;15.67;;;;;;;-1.36;100.00;96636.72;5046824;28;20475;-90
2023/03/16 00:20:06;;;;;;;22.60;13.80;;;;;;;-1.35;100.00;96634.97;5051690;28;20479;-91
2023/03/16 00:22:35;;;;;;;22.33;13.87;;;;;;;-1.31;100.00;96642.50;5051006;28;20474;-91
2023/03/16 00:25:01;;;;;;;23.20;13.23;;;;;;;-1.38;100.00;96630.78;5048612;28;21092;-90
2023/03/16 00:27:27;;;;;;;20.70;13.10;;;;;;;-1.31;100.00;96642.50;5030884;28;20583;-90
2023/03/16 00:29:56;;;;;;;18.97;12.97;;;;;;;-1.35;100.00;96640.94;5051860;28;20083;-91
2023/03/16 00:32:34;;;;;;;22.57;14.73;;;;;;;-1.31;100.00;96642.50;5047395;28;20032;-91
2023/03/16 00:35:01;;;;;;;20.83;13.40;;;;;;;-1.31;100.00;96641.63;5050383;28;20846;-90
2023/03/16 00:37:29;;;;;;;19.27;12.93;;;;;;;-1.35;100.00;96640.94;5034360;28;20550;-91
2023/03/16 00:39:58;;;;;;;21.00;13.33;;;;;;;-1.43;100.00;96640.50;5038140;28;21636;-90
2023/03/16 00:42:27;;;;;;;20.10;13.20;;;;;;;-1.40;100.00;96642.94;5033375;28;20459;-90
2023/03/16 00:44:56;;;;;;;18.43;12.67;;;;;;;-1.35;100.00;96646.09;5034424;28;20476;-91
2023/03/16 00:47:34;;;;;;;18.80;12.30;;;;;;;-1.39;100.00;96647.19;5038192;28;20468;-91
2023/03/16 00:50:02;;;;;;;20.20;12.70;;;;;;;-1.35;100.00;96646.09;5050236;28;20456;-90
2023/03/16 00:52:29;;;;;;;20.07;12.50;;;;;;;-1.34;100.00;96642.63;5034809;28;20464;-91
2023/03/16 00:55:24;;;;;;;19.73;12.53;;;;;;;-1.38;100.00;96654.00;5042729;28;20470;-90
2023/03/16 00:58:13;;;;;;;20.80;13.00;;;;;;;-1.43;100.00;96648.25;5071848;28;20474;-90
2023/03/16 01:00:53;;;;;;;17.77;12.03;;;;;;;-1.41;100.00;96643.81;5051597;28;20470;-91
2023/03/16 01:03:20;;;;;;;21.90;13.80;;;;;;;-1.49;100.00;96639.06;5040566;28;20468;-91
2023/03/16 01:05:58;;;;;;;18.67;12.70;;;;;;;-1.54;100.00;96629.88;5037200;28;20471;-89
2023/03/16 01:08:32;;;;;;;19.70;13.17;;;;;;;-1.49;100.00;96630.50;5043993;28;20459;-90
2023/03/16 01:11:09;;;;;;;20.03;13.60;;;;;;;-1.46;100.00;96630.34;5063216;28;20455;-90
2023/03/16 01:13:37;;;;;;;19.93;13.43;;;;;;;-1.57;100.00;96641.19;5058228;28;21462;-90
2023/03/16 01:16:07;;;;;;;18.30;12.07;;;;;;;-1.63;100.00;96631.16;5039987;28;20499;-90
2023/03/16 01:18:35;;;;;;;21.63;13.07;;;;;;;-1.68;100.00;96633.97;5035958;28;20480;-91
2023/03/16 01:21:02;;;;;;;17.37;11.40;;;;;;;-1.73;100.00;96641.09;5055577;28;20467;-90
2023/03/16 01:23:32;;;;;;;17.60;12.13;;;;;;;-1.66;100.00;96627.00;5052623;28;20448;-90
2023/03/16 01:26:07;;;;;;;18.37;12.43;;;;;;;-1.63;100.00;96627.75;5036777;28;21023;-91
2023/03/16 01:28:33;;;;;;;19.30;12.47;;;;;;;-1.58;100.00;96618.03;5046781;28;20463;-89
2023/03/16 01:31:02;;;;;;;21.30;12.97;;;;;;;-1.53;100.00;96623.81;5076486;28;20482;-90
2023/03/16 01:33:40;;;;;;;20.97;11.73;;;;;;;-1.58;100.00;96618.88;5042151;28;20486;-91
2023/03/16 01:36:12;;;;;;;20.77;13.43;;;;;;;-1.66;100.00;96627.00;5034192;28;21012;-91
2023/03/16 01:38:57;;;;;;;19.40;12.33;;;;;;;-1.73;100.00;96620.47;5046998;28;20459;-90
2023/03/16 01:41:35;;;;;;;18.83;12.43;;;;;;;-1.72;100.00;96622.13;5030400;28;20467;-91
2023/03/16 01:44:00;;;;;;;22.20;12.30;;;;;;;-1.71;100.00;96608.34;5052472;28;20470;-90
2023/03/16 01:46:28;;;;;;;19.50;12.77;;;;;;;-1.76;100.00;96614.63;5040040;28;20563;-90
2023/03/16 01:49:00;;;;;;;19.63;11.70;;;;;;;-1.78;100.00;96606.94;5033903;28;20489;-90
2023/03/16 01:51:50;;;;;;;13.45;9.10;;;;;;;-1.73;100.00;96604.16;5042705;28;20482;-90
2023/03/16 01:54:16;;;;;;;15.87;10.53;;;;;;;-1.81;100.00;96606.25;5048807;28;20057;-90
2023/03/16 01:56:57;;;;;;;20.50;13.40;;;;;;;-1.77;100.00;96603.47;5038755;28;20549;-90
2023/03/16 01:59:32;;;;;;;18.27;10.83;;;;;;;-1.75;100.00;96596.50;5031948;28;20059;-89
2023/03/16 02:01:59;;;;;;;17.07;10.80;;;;;;;-1.70;100.00;96601.44;5047634;28;20471;-90
2023/03/16 02:04:49;;;;;;;16.00;11.43;;;;;;;-1.72;100.00;96601.50;5047999;28;20474;-90
2023/03/16 02:07:27;;;;;;;15.83;10.40;;;;;;;-1.74;100.00;96600.75;5049578;28;20455;-90
2023/03/16 02:09:58;;;;;;;17.47;10.80;;;;;;;-1.75;100.00;96606.81;5063799;28;20447;-90
2023/03/16 02:12:29;;;;;;;17.57;11.50;;;;;;;-1.78;100.00;96609.53;5046894;28;20463;-90
2023/03/16 02:15:05;;;;;;;21.20;11.73;;;;;;;-1.82;100.00;96615.75;5048403;28;20487;-90
2023/03/16 02:17:33;;;;;;;14.33;9.00;;;;;;;-1.88;100.00;96608.31;5020541;28;20117;-90
2023/03/16 02:20:23;;;;;;;16.63;10.10;;;;;;;-1.95;100.00;96605.19;5037314;28;20578;-90
2023/03/16 02:22:54;;;;;;;13.63;9.20;;;;;;;-1.99;100.00;96608.00;5049936;28;20478;-90
2023/03/16 02:25:34;;;;;;;17.90;10.73;;;;;;;-2.00;100.00;96609.75;5037436;28;20521;-90
2023/03/16 02:28:21;;;;;;;15.90;10.17;;;;;;;-1.94;100.00;96609.44;5034659;28;20467;-90
2023/03/16 02:31:03;;;;;;;17.63;10.57;;;;;;;-1.88;100.00;96605.72;5060583;28;20493;-90
2023/03/16 02:33:31;;;;;;;15.90;9.93;;;;;;;-1.83;100.00;96608.09;5034666;28;20488;-90
2023/03/16 02:36:19;;;;;;;16.50;10.53;;;;;;;-1.78;100.00;96596.63;5049204;28;20529;-90
2023/03/16 02:38:46;;;;;;;16.33;10.17;;;;;;;-1.82;100.00;96605.44;5041442;28;20479;-90
2023/03/16 02:41:20;;;;;;;18.00;11.47;;;;;;;-1.83;100.00;96596.03;5039032;28;20464;-90
2023/03/16 02:44:14;;;;;;;16.70;10.80;;;;;;;-1.98;100.00;96596.75;5042225;28;20472;-90
2023/03/16 02:46:42;;;;;;;16.67;10.63;;;;;;;-2.07;100.00;96594.66;5056832;28;20577;-90
2023/03/16 02:49:33;;;;;;;16.10;10.83;;;;;;;-2.06;100.00;96583.44;5036692;28;21043;-90
2023/03/16 02:52:09;;;;;;;17.13;10.90;;;;;;;-2.13;100.00;96583.72;5037951;28;20475;-90
2023/03/16 02:54:36;;;;;;;17.33;10.27;;;;;;;-2.09;100.00;96575.84;5057866;28;20500;-89
2023/03/16 02:57:02;;;;;;;15.57;10.47;;;;;;;-2.09;100.00;96575.84;5042414;28;20471;-90
2023/03/16 02:59:30;;;;;;;19.10;10.83;;;;;;;-2.14;100.00;96582.06;5053200;28;20476;-90
2023/03/16 03:02:00;;;;;;;21.03;10.70;;;;;;;-2.09;100.00;96583.56;5076464;28;20472;-91
2023/03/16 03:04:45;;;;;;;17.47;10.77;;;;;;;-2.13;100.00;96586.28;5053701;28;20474;-90
2023/03/16 03:07:30;;;;;;;16.40;10.60;;;;;;;-2.09;100.00;96581.00;5046102;28;21044;-90
2023/03/16 03:10:13;;;;;;;19.17;12.87;;;;;;;-2.07;100.00;96579.19;5054360;28;20439;-91
2023/03/16 03:12:41;;;;;;;18.37;10.83;;;;;;;-2.08;100.00;96582.66;5048627;28;20469;-90
2023/03/16 03:15:09;;;;;;;18.73;12.73;;;;;;;-2.09;100.00;96581.00;5068591;28;20501;-90
2023/03/16 03:17:55;;;;;;;18.77;11.53;;;;;;;-2.05;100.00;96577.34;5050802;28;20490;-90
2023/03/16 03:20:53;;;;;;;17.97;11.30;;;;;;;-2.09;100.00;96571.53;5052995;28;21024;-90
2023/03/16 03:23:19;;;;;;;18.97;11.33;;;;;;;-2.10;100.00;96574.19;5049140;28;20033;-90
2023/03/16 03:25:45;;;;;;;18.60;12.30;;;;;;;-2.07;100.00;96568.88;5035764;28;20518;-90
2023/03/16 03:28:11;;;;;;;17.57;10.60;;;;;;;-2.05;100.00;96572.22;5036664;28;20474;-90
2023/03/16 03:30:47;;;;;;;18.00;10.97;;;;;;;-1.93;100.00;96577.59;5056114;28;20440;-89
2023/03/16 03:33:18;;;;;;;21.47;12.43;;;;;;;-1.87;100.00;96571.31;5040121;28;20072;-90
2023/03/16 03:35:43;;;;;;;19.13;11.80;;;;;;;-1.89;100.00;96573.13;5048311;28;20825;-90
2023/03/16 03:38:10;;;;;;;20.20;11.30;;;;;;;-1.86;100.00;96577.31;5038019;28;20476;-90
2023/03/16 03:40:52;;;;;;;21.07;11.40;;;;;;;-1.88;100.00;96571.38;5048927;28;20124;-89
2023/03/16 03:43:21;;;;;;;20.17;11.63;;;;;;;-1.90;100.00;96567.16;5054616;28;20447;-90
2023/03/16 03:46:15;;;;;;;22.63;12.30;;;;;;;-1.86;100.00;96567.00;5038560;28;20558;-90
2023/03/16 03:48:41;;;;;;;19.33;11.33;;;;;;;-1.84;100.00;96570.34;5036485;28;20463;-90
2023/03/16 03:51:07;;;;;;;19.97;12.03;;;;;;;-1.79;100.00;96568.38;5055278;28;20455;-90
2023/03/16 03:53:41;;;;;;;20.93;12.20;;;;;;;-1.76;100.00;96566.47;5040769;28;20988;-90
2023/03/16 03:56:17;;;;;;;25.60;12.50;;;;;;;-1.76;100.00;96576.78;5039202;28;20473;-90
2023/03/16 03:58:42;;;;;;;20.57;12.63;;;;;;;-1.73;100.00;96576.63;5039043;28;20498;-90
2023/03/16 04:01:10;;;;;;;22.93;13.40;;;;;;;-1.69;100.00;96572.97;5066512;28;20017;-90
2023/03/16 04:03:35;;;;;;;22.33;13.83;;;;;;;-1.67;100.00;96572.94;5074346;28;20481;-90
2023/03/16 04:06:02;;;;;;;20.93;13.47;;;;;;;-1.57;100.00;96568.97;5056477;28;20021;-90
2023/03/16 04:08:29;;;;;;;24.60;14.03;;;;;;;-1.54;100.00;96552.50;5069316;28;20510;-90
2023/03/16 04:10:56;;;;;;;26.37;15.57;;;;;;;-1.57;100.00;96555.25;5044099;28;20501;-90
2023/03/16 04:13:23;;;;;;;26.83;14.30;;;;;;;-1.57;100.00;96553.50;5041163;28;20517;-90
2023/03/16 04:15:54;;;;;;;23.40;14.70;;;;;;;-1.62;100.00;96567.53;5050942;28;20399;-90
2023/03/16 04:18:26;;;;;;;27.80;16.43;;;;;;;-1.66;100.00;96559.94;5036237;28;20483;-90
2023/03/16 04:20:52;;;;;;;23.23;14.37;;;;;;;-1.63;100.00;96558.13;5064625;28;20478;-90
2023/03/16 04:23:23;;;;;;;23.07;13.67;;;;;;;-1.72;100.00;96560.25;5033648;28;20539;-90
2023/03/16 04:25:50;;;;;;;23.93;14.23;;;;;;;-1.67;100.00;96553.13;5040804;28;20471;-90
2023/03/16 04:28:19;;;;;;;26.00;15.87;;;;;;;-1.53;100.00;96544.69;5038385;28;20498;-90
2023/03/16 04:30:53;;;;;;;31.13;17.27;;;;;;;-1.45;100.00;96536.56;5055508;28;20563;-90
2023/03/16 04:33:31;;;;;;;27.97;16.80;;;;;;;-1.36;100.00;96532.69;5053121;28;20483;-90
2023/03/16 04:35:57;;;;;;;24.27;14.80;;;;;;;-1.38;100.00;96543.06;5051738;28;20474;-90
2023/03/16 04:38:24;;;;;;;24.57;15.57;;;;;;;-1.36;100.00;96546.41;5038719;28;20467;-90
2023/03/16 04:40:54;;;;;;;23.30;14.60;;;;;;;-1.40;100.00;96550.06;5054520;28;20456;-90
2023/03/16 04:43:48;;;;;;;24.63;15.00;;;;;;;-1.41;100.00;96535.47;5042629;28;20502;-90
2023/03/16 04:46:20;;;;;;;25.67;15.27;;;;;;;-1.38;100.00;96542.25;5081729;28;20456;-90
2023/03/16 04:48:51;;;;;;;26.80;15.60;;;;;;;-1.31;100.00;96534.13;5047615;28;20452;-90
2023/03/16 04:51:17;;;;;;;24.63;14.57;;;;;;;-1.32;100.00;96531.59;5034659;28;20075;-90
2023/03/16 04:53:57;;;;;;;21.43;13.67;;;;;;;-1.32;100.00;96535.00;5036898;28;20534;-90
2023/03/16 04:56:31;;;;;;;25.75;14.77;;;;;;;-1.33;100.00;96525.63;5050239;28;20612;-90
2023/03/16 04:59:10;;;;;;;21.77;13.63;;;;;;;-1.28;100.00;96523.63;5035434;28;20037;-90
2023/03/16 05:01:56;;;;;;;22.57;14.40;;;;;;;-1.31;100.00;96522.94;5054676;28;20463;-90
2023/03/16 05:04:23;;;;;;;22.63;14.23;;;;;;;-1.27;100.00;96527.06;5041532;28;20483;-90
2023/03/16 05:07:17;;;;;;;21.20;14.70;;;;;;;-1.26;100.00;96532.13;5051236;28;20057;-90
2023/03/16 05:09:47;;;;;;;24.60;14.80;;;;;;;-1.23;100.00;96534.56;5052184;28;21215;-88
2023/03/16 05:12:13;;;;;;;26.10;16.10;;;;;;;-1.17;100.00;96529.97;5036608;28;20463;-90
2023/03/16 05:14:45;;;;;;;23.90;14.97;;;;;;;-1.21;100.00;96530.16;5057376;28;20049;-89
2023/03/16 05:17:41;;;;;;;25.02;14.98;;;;;;;-1.09;100.00;96527.84;5048742;28;20463;-90
2023/03/16 05:20:11;;;;;;;20.83;12.45;;;;;;;-1.09;100.00;96533.00;5039203;28;20767;-90
2023/03/16 05:22:41;;;;;;;27.90;17.67;;;;;;;-1.12;100.00;96522.81;5041993;28;20076;-90
2023/03/16 05:25:16;;;;;;;27.57;16.90;;;;;;;-1.04;100.00;96516.38;5044720;28;20841;-89
2023/03/16 05:27:52;;;;;;;26.30;17.33;;;;;;;-1.11;100.00;96516.75;5041412;28;20749;-90
2023/03/16 05:30:35;;;;;;;25.17;15.73;;;;;;;-1.12;100.00;96520.25;5042919;28;20459;-90
2023/03/16 05:33:09;;;;;;;23.90;15.30;;;;;;;-1.12;100.00;96507.34;5045977;28;20468;-90
2023/03/16 05:35:37;;;;;;;26.17;14.87;;;;;;;-1.10;100.00;96508.09;5059010;28;20467;-89
2023/03/16 05:38:14;;;;;;;26.93;16.13;;;;;;;-1.09;100.00;96508.00;5040861;28;20533;-90
2023/03/16 05:40:42;;;;;;;26.17;15.77;;;;;;;-1.00;100.00;96514.44;5053670;28;20474;-90
2023/03/16 05:43:19;;;;;;;24.03;15.67;;;;;;;-0.82;100.00;96515.19;5055818;28;20459;-89
2023/03/16 05:45:49;;;;;;;25.73;17.13;;;;;;;-0.78;100.00;96517.53;5042891;28;20534;-89
2023/03/16 05:48:20;;;;;;;26.97;16.37;;;;;;;-0.60;100.00;96525.22;5037133;28;20466;-91
2023/03/16 05:50:57;;;;;;;25.23;16.20;;;;;;;-0.46;100.00;96521.88;5035583;28;20471;-87
2023/03/16 05:53:28;;;;;;;25.63;15.57;;;;;;;-0.27;100.00;96512.16;5032528;28;20841;-88
2023/03/16 05:55:56;;;;;;;26.87;16.53;;;;;;;-0.08;100.00;96527.47;5049542;28;20467;-86
2023/03/16 05:58:23;;;;;;;23.83;15.90;;;;;;;-0.05;100.00;96527.31;5037710;28;20463;-86
2023/03/16 06:00:50;;;;;;;22.70;15.20;;;;;;;-0.10;100.00;96526.72;5048586;28;20473;-86
2023/03/16 06:03:27;;;;;;;21.83;15.10;;;;;;;-0.11;100.00;96522.47;5044076;28;20833;-87
2023/03/16 06:05:55;;;;;;;26.93;16.43;;;;;;;-0.16;100.00;96522.75;5045042;28;20479;-86
2023/03/16 06:08:36;;;;;;;23.93;15.63;;;;;;;0.35;100.00;96499.16;5045671;28;20505;-86
2023/03/16 06:11:10;;;;;;;23.07;15.47;;;;;;;0.54;100.00;96499.72;5038904;28;21069;-86
2023/03/16 06:13:44;;;;;;;27.40;17.23;;;;;;;0.51;100.00;96494.72;5038070;28;20558;-87
2023/03/16 06:16:13;;;;;;;31.50;17.03;;;;;;;0.74;100.00;96495.09;5042121;28;20825;-87
2023/03/16 06:18:40;;;;;;;23.03;15.50;;;;;;;1.07;100.00;96487.84;5038016;28;20487;-87
2023/03/16 06:21:14;;;;;;;22.20;14.80;;;;;;;0.94;100.00;96497.31;5036231;28;20485;-87
2023/03/16 06:23:42;;;;;;;22.27;14.53;;;;;;;1.25;100.00;96498.03;5042235;28;20464;-87
2023/03/16 06:26:09;;;;;;;24.07;14.73;;;;;;;0.94;100.00;96505.09;5057435;28;20467;-85
2023/03/16 06:28:38;;;;;;;20.37;14.13;;;;;;;1.15;100.00;96492.59;5056220;28;20485;-85
2023/03/16 06:31:05;;;;;;;20.53;11.57;;;;;;;0.91;100.00;96500.09;5049220;28;20468;-86
2023/03/16 06:33:33;;;;;;;18.47;12.40;;;;;;;0.88;100.00;96503.69;5037903;28;20039;-85
2023/03/16 06:36:00;;;;;;;20.03;12.63;;;;;;;0.84;100.00;96504.81;5038777;28;21081;-86
2023/03/16 06:38:40;;;;;;;;;;;;;;;1.02;100.00;96499.44;5038712;28;20033;-86
2023/03/16 06:41:28;;;;;;;18.40;12.43;;;;;;;1.22;100.00;96496.44;5051420;28;19916;-85
2023/03/16 06:43:56;;;;;;;18.73;12.23;;;;;;;1.20;100.00;96494.88;5053259;28;20483;-85
2023/03/16 06:46:22;;;;;;;18.97;12.40;;;;;;;1.17;100.00;96499.34;5037027;28;20450;-85
2023/03/16 06:48:52;;;;;;;19.10;12.80;;;;;;;1.24;100.00;96504.97;5043143;28;20468;-85
2023/03/16 06:51:22;;;;;;;20.63;13.17;;;;;;;1.33;100.00;96499.19;5041226;28;20094;-86
2023/03/16 06:53:49;;;;;;;21.77;13.83;;;;;;;1.13;100.00;96494.41;5038056;28;20467;-86
2023/03/16 06:56:15;;;;;;;19.93;12.40;;;;;;;0.89;100.00;96491.59;5046361;28;21025;-85
2023/03/16 06:58:46;;;;;;;21.70;14.33;;;;;;;1.05;100.00;96492.31;5041628;28;20486;-85
2023/03/16 07:01:21;;;;;;;19.67;13.03;;;;;;;0.52;100.00;96496.38;5034875;28;20566;-85
2023/03/16 07:04:00;;;;;;;20.30;12.93;;;;;;;0.63;100.00;96493.16;5053772;28;20435;-85
2023/03/16 07:06:35;;;;;;;20.63;13.33;;;;;;;1.65;100.00;96499.75;5041809;28;20522;-86
2023/03/16 07:09:07;;;;;;;24.93;13.67;;;;;;;2.30;100.00;96492.97;5039564;28;21034;-85
2023/03/16 07:11:35;;;;;;;17.67;11.43;;;;;;;2.33;100.00;96487.56;5036256;28;20490;-86
2023/03/16 07:14:04;;;;;;;18.37;12.87;;;;;;;2.74;100.00;96483.94;5034197;28;20572;-85
2023/03/16 07:16:35;;;;;;;18.43;12.57;;;;;;;2.64;100.00;96480.31;5042694;28;20459;-86
2023/03/16 07:19:21;;;;;;;16.57;11.37;;;;;;;2.64;100.00;96490.69;5050582;28;20483;-85
2023/03/16 07:21:48;;;;;;;19.45;12.80;;;;;;;3.10;100.00;96487.53;5039630;28;20558;-86
2023/03/16 07:24:21;;;;;;;17.00;10.33;;;;;;;3.48;100.00;96490.84;5039674;28;20036;-86
2023/03/16 07:26:47;;;;;;;15.80;10.90;;;;;;;3.09;100.00;96483.28;5051556;28;21740;-86
2023/03/16 07:29:21;;;;;;;16.20;11.67;;;;;;;3.55;100.00;96478.25;5053550;28;20455;-86
2023/03/16 07:31:48;;;;;;;15.20;9.50;;;;;;;3.66;100.00;96485.31;5035786;28;20720;-85
2023/03/16 07:34:22;;;;;;;16.67;9.70;;;;;;;3.64;100.00;96492.38;5036868;28;20482;-86
2023/03/16 07:36:56;;;;;;;15.47;9.57;;;;;;;4.00;100.00;96492.31;5036593;28;20502;-87
2023/03/16 07:39:25;;;;;;;13.40;8.93;;;;;;;3.78;100.00;96485.22;5034016;28;20024;-86
2023/03/16 07:42:00;;;;;;;13.82;9.10;;;;;;;3.92;100.00;96489.44;5060602;28;20037;-85
2023/03/16 07:44:52;;;;;;;;;;;;;;;4.15;100.00;96485.13;5046162;28;20052;-86
2023/03/16 07:47:24;;;;;;;15.90;9.70;;;;;;;4.63;100.00;96490.22;5034050;28;19970;-86
2023/03/16 07:49:56;;;;;;;12.60;8.00;;;;;;;4.52;100.00;96491.97;5034069;28;20520;-87
2023/03/16 07:52:23;;;;;;;13.40;9.37;;;;;;;5.08;100.00;96484.22;5068053;28;20040;-87
2023/03/16 07:54:51;;;;;;;13.20;9.03;;;;;;;4.91;100.00;96488.94;5037741;28;20064;-86
2023/03/16 07:57:17;;;;;;;13.97;8.47;;;;;;;4.82;100.00;96484.44;5040333;28;20033;-87
2023/03/16 07:59:49;;;;;;;14.43;8.80;;;;;;;5.24;100.00;96484.69;5032767;28;20034;-87
2023/03/16 08:02:18;;;;;;;9.18;6.13;;;;;;;5.30;100.00;96484.19;5035246;28;20029;-87
2023/03/16 08:04:59;;;;;;;13.87;8.23;;;;;;;6.16;100.00;96476.50;5050707;28;20037;-87
2023/03/16 08:07:26;;;;;;;11.83;7.77;;;;;;;5.81;100.00;96483.59;5036676;28;20151;-87
2023/03/16 08:10:10;;;;;;;11.83;7.57;;;;;;;6.02;100.00;96469.78;5040890;28;20044;-86
2023/03/16 08:12:43;;;;;;;11.97;7.50;;;;;;;6.16;100.00;96476.50;5053686;28;20123;-87
2023/03/16 08:15:15;;;;;;;12.60;8.13;;;;;;;6.41;100.00;96478.75;5051688;28;20067;-87
2023/03/16 08:17:42;;;;;;;10.85;6.97;;;;;;;6.27;100.00;96476.44;5032747;28;20923;-86
2023/03/16 08:20:19;;;;;;;10.83;7.10;;;;;;;5.95;100.00;96481.69;5050386;28;20044;-85
2023/03/16 08:22:48;;;;;;;11.50;6.70;;;;;;;5.96;100.00;96476.34;5035632;28;20110;-87
2023/03/16 08:25:18;;;;;;;11.10;7.57;;;;;;;6.71;100.00;96472.75;5034911;28;20039;-87
2023/03/16 08:27:54;;;;;;;11.77;7.87;;;;;;;6.73;100.00;96475.22;5040329;28;20036;-87
2023/03/16 08:30:31;;;;;;;11.47;6.53;;;;;;;6.93;100.00;96463.06;5041417;28;20043;-87
2023/03/16 08:33:50;;;;;;;11.97;6.70;;;;;;;7.14;100.00;96471.69;5037918;28;20048;-87
2023/03/16 08:36:22;;;;;;;9.67;5.97;;;;;;;7.64;100.00;96466.44;5032404;28;20045;-87
2023/03/16 08:38:53;;;;;;;9.53;6.30;;;;;;;7.71;100.00;96467.59;5040792;28;20522;-87
2023/03/16 08:41:22;;;;;;;9.60;6.27;;;;;;;8.15;100.00;96462.78;5042569;28;20059;-87
2023/03/16 08:43:51;;;;;;;9.67;6.00;;;;;;;8.03;100.00;96471.72;5034201;28;20029;-87
2023/03/16 08:46:20;;;;;;;8.70;5.20;;;;;;;8.62;100.00;96459.44;5033810;28;20067;-87
2023/03/16 08:48:54;;;;;;;10.67;5.40;;;;;;;8.66;100.00;96458.19;5035419;28;20025;-87
2023/03/16 08:51:28;;;;;;;8.77;5.40;;;;;;;8.84;100.00;96463.50;5035227;28;20033;-87
2023/03/16 08:53:54;;;;;;;12.10;5.10;;;;;;;8.46;100.00;96463.47;5033831;28;20051;-88
2023/03/16 08:56:25;;;;;;;8.57;4.33;;;;;;;7.78;100.00;96467.88;5039122;28;20033;-86
2023/03/16 08:58:52;;;;;;;7.10;3.80;;;;;;;7.33;100.00;96478.78;5035414;28;20036;-88
2023/03/16 09:01:19;;;;;;;8.10;4.60;;;;;;;7.71;100.00;96470.19;5064158;28;20037;-87
2023/03/16 09:03:45;;;;;;;8.63;5.03;;;;;;;8.34;100.00;96461.09;5048773;28;20079;-87
2023/03/16 09:06:14;;;;;;;7.57;4.47;;;;;;;8.38;100.00;96465.94;5065539;28;20188;-87
2023/03/16 09:08:40;;;;;;;8.17;4.37;;;;;;;8.32;100.00;96457.81;5051025;28;20271;-87
2023/03/16 09:11:11;;;;;;;10.67;5.07;;;;;;;7.42;100.00;96472.75;5055353;28;20090;-87
2023/03/16 09:13:46;;;;;;;8.07;5.03;;;;;;;7.73;100.00;96455.16;5052579;28;20033;-87
2023/03/16 09:16:24;;;;;;;8.23;4.60;;;;;;;8.65;100.00;96446.03;5036418;28;20033;-88
2023/03/16 09:18:52;;;;;;;7.03;4.43;;;;;;;7.51;100.00;96461.50;5043796;28;20034;-87
2023/03/16 09:21:22;;;;;;;9.27;5.17;;;;;;;8.22;100.00;96444.72;5050928;28;20036;-88
2023/03/16 09:23:48;;;;;;;10.87;5.13;;;;;;;7.40;100.00;96463.38;5037275;28;20036;-88
2023/03/16 09:26:14;;;;;;;6.97;4.23;;;;;;;7.12;100.00;96465.78;5035437;28;20040;-88
2023/03/16 09:28:41;;;;;;;8.63;4.90;;;;;;;7.31;100.00;96462.41;5032369;28;20029;-88
2023/03/16 09:31:15;;;;;;;9.37;4.43;;;;;;;7.03;100.00;96467.38;5043328;28;20092;-87
2023/03/16 09:33:41;;;;;;;8.10;4.20;;;;;;;7.19;100.00;96461.66;5034760;28;20037;-88
2023/03/16 09:36:10;;;;;;;7.60;4.47;;;;;;;8.29;100.00;96458.09;5039613;28;20510;-88
2023/03/16 09:38:36;;;;;;;9.23;4.67;;;;;;;8.71;100.00;96455.94;5030090;28;20102;-88
2023/03/16 09:41:08;;;;;;;9.10;4.73;;;;;;;9.60;100.00;96445.75;5038753;28;20037;-88
2023/03/16 09:43:48;;;;;;;7.87;4.83;;;;;;;8.83;100.00;96454.00;5038060;28;20033;-88
2023/03/16 09:46:20;;;;;;;7.53;4.40;;;;;;;9.30;100.00;96446.06;5037307;28;20045;-87
2023/03/16 09:48:47;;;;;;;6.80;3.43;;;;;;;9.67;100.00;96433.69;5037086;28;20384;-88
2023/03/16 09:51:27;;;;;;;10.53;5.10;;;;;;;9.44;100.00;96437.72;5040923;28;20100;-88
2023/03/16 09:54:00;;;;;;;6.57;3.50;;;;;;;9.59;100.00;96433.63;5050360;28;20021;-88
2023/03/16 09:56:48;;;;;;;6.38;3.90;;;;;;;9.70;100.00;96431.75;5045617;28;20037;-88
2023/03/16 09:59:17;;;;;;;8.43;4.77;;;;;;;9.65;100.00;96430.38;5059814;28;20021;-88
2023/03/16 10:02:18;;;;;;;6.87;4.03;;;;;;;10.70;100.00;96430.63;5049735;28;20158;-88
2023/03/16 10:05:08;;;;;;;7.40;4.37;;;;;;;9.85;100.00;96431.06;5039400;28;20040;-88
2023/03/16 10:08:07;;;;;;;9.27;4.67;;;;;;;10.68;100.00;96403.66;5040933;28;20032;-87
2023/03/16 10:10:42;;;;;;;7.00;4.10;;;;;;;10.80;100.00;96411.13;5036021;28;20033;-89
2023/03/16 10:13:35;;;;;;;7.87;4.50;;;;;;;9.70;100.00;96416.00;5038891;28;20032;-88
2023/03/16 10:16:08;;;;;;;7.87;4.30;;;;;;;9.93;100.00;96411.94;5046176;28;20036;-89
2023/03/16 10:19:00;;;;;;;7.63;4.40;;;;;;;10.54;100.00;96405.88;5037625;28;20479;-89
2023/03/16 10:21:33;;;;;;;7.83;4.50;;;;;;;9.03;100.00;96413.63;5050291;28;20048;-89
2023/03/16 10:24:03;;;;;;;7.57;4.07;;;;;;;8.12;100.00;96399.38;5049592;28;20068;-88
2023/03/16 10:26:40;;;;;;;8.17;4.30;;;;;;;8.33;100.00;96391.31;5034871;28;20132;-89
2023/03/16 10:29:13;;;;;;;7.80;4.47;;;;;;;8.90;100.00;96389.50;5053601;28;20033;-89
2023/03/16 10:31:41;;;;;;;7.20;3.60;;;;;;;8.17;100.00;96390.09;5050679;28;20071;-89
2023/03/16 10:34:09;;;;;;;6.00;3.27;;;;;;;8.19;100.00;96395.22;5053051;28;20043;-88
2023/03/16 10:36:40;;;;;;;8.53;4.10;;;;;;;9.56;100.00;96389.28;5036776;28;20807;-88
2023/03/16 10:39:12;;;;;;;6.50;3.87;;;;;;;9.29;100.00;96387.53;5034124;28;20025;-89
2023/03/16 10:41:55;;;;;;;6.83;3.70;;;;;;;10.41;100.00;96387.03;5036740;28;20329;-89
2023/03/16 10:44:23;;;;;;;6.53;3.78;;;;;;;10.68;100.00;96386.06;5044540;28;20033;-88
2023/03/16 10:47:02;;;;;;;6.50;3.33;;;;;;;9.74;100.00;96385.81;5043811;28;20048;-89
2023/03/16 10:49:47;;;;;;;6.70;3.33;;;;;;;11.03;100.00;96389.50;5037853;28;20087;-89
2023/03/16 10:52:18;;;;;;;6.37;2.97;;;;;;;10.34;100.00;96386.84;5037935;28;20417;-89
2023/03/16 10:54:51;;;;;;;6.30;3.23;;;;;;;9.68;100.00;96376.75;5036293;28;20040;-89
2023/03/16 10:57:34;;;;;;;7.55;3.47;;;;;;;10.29;100.00;96372.50;5036916;28;20032;-88
2023/03/16 11:00:19;;;;;;;6.53;3.20;;;;;;;10.11;100.00;96368.06;5039918;28;20068;-89
2023/03/16 11:02:48;;;;;;;6.23;3.30;;;;;;;10.05;100.00;96373.94;5052122;28;20047;-88
2023/03/16 11:05:17;;;;;;;9.33;4.10;;;;;;;9.53;100.00;96367.75;5070392;28;20042;-91
2023/03/16 11:08:38;;;;;;;;;;;;;;;;;;;;;
2023/03/16 11:14:44;;;;;;;7.87;3.83;;;;;;;8.88;100.00;96368.66;5055320;28;20048;-91
2023/03/16 11:17:32;;;;;;;6.93;3.63;;;;;;;8.75;100.00;96365.53;5047706;28;20036;-91
2023/03/16 11:20:22;;;;;;;7.03;3.07;;;;;;;8.56;100.00;96369.09;5049076;28;20045;-92
2023/03/16 11:22:51;;;;;;;6.63;3.47;;;;;;;8.00;100.00;96365.44;5038447;28;20041;-92
2023/03/16 11:25:36;;;;;;;9.17;5.13;;;;;;;8.31;100.00;96367.88;5039965;28;20044;-92
2023/03/16 11:28:05;;;;;;;6.87;3.57;;;;;;;8.74;100.00;96359.47;5056047;28;20143;-92
2023/03/16 11:30:58;;;;;;;6.90;3.90;;;;;;;8.38;100.00;96368.16;5049210;28;20033;-93
2023/03/16 11:34:01;;;;;;;5.70;3.60;;;;;;;9.28;100.00;96367.47;5030727;28;20013;-92
2023/03/16 11:36:49;;;;;;;5.93;2.83;;;;;;;9.71;100.00;96373.81;5055464;28;20021;-92
2023/03/16 11:39:30;;;;;;;6.20;3.90;;;;;;;9.43;100.00;96375.69;5041987;28;20033;-92
2023/03/16 11:42:00;;;;;;;5.80;3.50;;;;;;;10.50;100.00;96377.41;5046280;28;20029;-92
2023/03/16 11:44:40;;;;;;;6.17;3.60;;;;;;;9.74;100.00;96380.56;5041868;28;20048;-92
2023/03/16 11:50:42;;;;;;;6.33;3.90;;;;;;;10.44;100.00;96362.25;5045791;28;20049;-92
2023/03/16 11:53:27;;;;;;;8.47;3.50;;;;;;;10.70;100.00;96360.44;5042550;28;20037;-92
2023/03/16 11:56:03;;;;;;;7.83;3.90;;;;;;;11.02;100.00;96345.75;5038218;28;20076;-93
2023/03/16 11:58:48;;;;;;;8.10;4.80;;;;;;;10.37;100.00;96351.53;5029777;28;20224;-92